createdAt,value
2022-08-17T00:00:51.912Z,57.43
2022-08-17T00:01:52.567Z,55.72
2022-08-17T00:02:51.104Z,58.72
2022-08-17T00:03:51.013Z,57.63
2022-08-17T00:04:51.010Z,57.24
2022-08-17T00:05:51.036Z,56.27
2022-08-17T00:06:51.002Z,56.92
2022-08-17T00:07:51.134Z,55.98
2022-08-17T00:08:50.991Z,56.94
2022-08-17T00:09:50.969Z,56.06
2022-08-17T00:10:50.982Z,59.21
2022-08-17T00:12:40.386Z,55.26
2022-08-17T00:12:52.347Z,56.37
2022-08-17T00:13:50.935Z,56.47
2022-08-17T00:14:51.954Z,58.11
2022-08-17T00:15:50.925Z,55.77
2022-08-17T00:16:57.433Z,57.06
2022-08-17T00:17:51.905Z,58.43
2022-08-17T00:19:01.476Z,57.70
2022-08-17T00:19:51.891Z,55.95
2022-08-17T00:20:50.891Z,56.96
2022-08-17T00:22:32.856Z,57.72
2022-08-17T00:22:52.054Z,55.53
2022-08-17T00:23:50.859Z,56.52
2022-08-17T00:24:50.882Z,55.95
2022-08-17T00:25:50.855Z,56.79
2022-08-17T00:26:50.842Z,57.12
2022-08-17T00:27:50.832Z,57.01
2022-08-17T00:28:50.832Z,57.54
2022-08-17T00:29:50.843Z,57.34
2022-08-17T00:30:53.181Z,56.72
2022-08-17T00:31:50.805Z,57.38
2022-08-17T00:33:12.481Z,56.28
2022-08-17T00:33:51.791Z,56.92
2022-08-17T00:34:50.782Z,56.67
2022-08-17T00:35:50.785Z,57.93
2022-08-17T00:36:50.808Z,57.63
2022-08-17T00:37:50.773Z,56.74
2022-08-17T00:38:50.774Z,56.35
2022-08-17T00:39:50.796Z,55.87
2022-08-17T00:40:51.827Z,57.00
2022-08-17T00:41:50.756Z,56.89
2022-08-17T00:42:50.788Z,57.19
2022-08-17T00:43:50.711Z,57.35
2022-08-17T00:44:50.729Z,59.41
2022-08-17T00:45:50.739Z,56.15
2022-08-17T00:46:50.708Z,55.30
2022-08-17T00:47:50.688Z,57.43
2022-08-17T00:48:50.680Z,57.19
2022-08-17T00:49:50.674Z,55.68
2022-08-17T00:50:50.664Z,56.03
2022-08-17T00:51:50.682Z,57.47
2022-08-17T00:52:50.828Z,55.83
2022-08-17T00:53:50.639Z,57.88
2022-08-17T00:54:50.645Z,57.07
2022-08-17T00:55:50.642Z,56.13
2022-08-17T00:56:50.679Z,55.84
2022-08-17T00:57:55.070Z,54.60
2022-08-17T00:58:50.598Z,55.31
2022-08-17T00:59:55.979Z,57.79
2022-08-17T01:00:51.602Z,54.74
2022-08-17T01:01:50.585Z,52.79
2022-08-17T01:02:50.597Z,56.51
2022-08-17T01:03:50.570Z,56.70
2022-08-17T01:04:50.547Z,57.88
2022-08-17T01:05:50.546Z,56.80
2022-08-17T01:06:50.617Z,57.99
2022-08-17T01:07:50.544Z,56.76
2022-08-17T01:08:50.535Z,56.32
2022-08-17T01:09:51.517Z,57.77
2022-08-17T01:10:58.882Z,54.78
2022-08-17T01:11:51.524Z,57.99
2022-08-17T01:12:50.662Z,55.99
2022-08-17T01:13:50.510Z,55.37
2022-08-17T01:14:50.499Z,56.14
2022-08-17T01:15:50.505Z,56.23
2022-08-17T01:16:50.483Z,55.70
2022-08-17T01:17:50.458Z,54.98
2022-08-17T01:18:50.447Z,54.99
2022-08-17T01:19:50.457Z,55.35
2022-08-17T01:20:50.450Z,54.07
2022-08-17T01:21:50.430Z,57.38
2022-08-17T01:22:50.614Z,56.37
2022-08-17T01:23:50.443Z,56.96
2022-08-17T01:24:50.403Z,56.63
2022-08-17T01:25:50.415Z,55.96
2022-08-17T01:26:50.423Z,56.01
2022-08-17T01:27:50.395Z,56.05
2022-08-17T01:28:54.974Z,54.86
2022-08-17T01:29:50.367Z,54.76
2022-08-17T01:30:57.342Z,55.90
2022-08-17T01:31:51.380Z,56.75
2022-08-17T01:32:50.640Z,56.96
2022-08-17T01:33:50.410Z,56.45
2022-08-17T01:34:50.907Z,55.77
2022-08-17T01:35:50.342Z,56.51
2022-08-17T01:36:50.321Z,57.76
2022-08-17T01:37:50.314Z,56.34
2022-08-17T01:38:50.324Z,55.35
2022-08-17T01:39:50.375Z,55.97
2022-08-17T01:40:50.290Z,55.80
2022-08-17T01:41:51.284Z,56.61
2022-08-17T01:42:50.453Z,56.71
2022-08-17T01:43:50.265Z,57.69
2022-08-17T01:44:50.258Z,55.84
2022-08-17T01:45:50.296Z,54.94
2022-08-17T01:46:51.266Z,55.50
2022-08-17T01:47:50.238Z,55.50
2022-08-17T01:48:50.231Z,55.12
2022-08-17T01:49:50.238Z,57.32
2022-08-17T01:50:50.218Z,57.57
2022-08-17T01:51:50.230Z,56.02
2022-08-17T01:52:50.366Z,56.89
2022-08-17T01:53:50.191Z,59.21
2022-08-17T01:54:50.187Z,57.24
2022-08-17T01:55:50.183Z,56.77
2022-08-17T01:56:50.164Z,55.91
2022-08-17T01:57:50.190Z,54.70
2022-08-17T01:58:50.154Z,57.38
2022-08-17T01:59:50.144Z,55.68
2022-08-17T02:01:00.852Z,58.01
2022-08-17T02:01:51.172Z,60.08
2022-08-17T02:02:50.330Z,58.54
2022-08-17T02:03:59.219Z,57.74
2022-08-17T02:04:51.108Z,57.00
2022-08-17T02:05:50.100Z,56.85
2022-08-17T02:06:53.745Z,57.58
2022-08-17T02:07:59.581Z,55.74
2022-08-17T02:09:01.814Z,57.25
2022-08-17T02:09:52.775Z,57.99
2022-08-17T02:10:50.071Z,58.49
2022-08-17T02:11:50.044Z,57.58
2022-08-17T02:12:50.236Z,57.71
2022-08-17T02:13:57.851Z,57.37
2022-08-17T02:14:51.041Z,55.17
2022-08-17T02:15:50.029Z,55.11
2022-08-17T02:16:50.008Z,56.36
2022-08-17T02:17:50.006Z,57.86
2022-08-17T02:18:49.994Z,56.31
2022-08-17T02:19:50.011Z,58.51
2022-08-17T02:20:49.978Z,55.95
2022-08-17T02:21:49.972Z,56.92
2022-08-17T02:22:50.070Z,58.24
2022-08-17T02:23:49.969Z,56.13
2022-08-17T02:24:59.731Z,56.27
2022-08-17T02:25:50.953Z,55.96
2022-08-17T02:26:49.933Z,56.67
2022-08-17T02:27:49.931Z,57.05
2022-08-17T02:28:49.930Z,56.36
2022-08-17T02:29:49.944Z,55.48
2022-08-17T02:31:01.156Z,57.19
2022-08-17T02:31:50.900Z,56.34
2022-08-17T02:32:50.016Z,55.72
2022-08-17T02:34:00.495Z,57.86
2022-08-17T02:34:50.884Z,57.94
2022-08-17T02:35:49.863Z,58.07
2022-08-17T02:36:49.862Z,56.71
2022-08-17T02:37:51.829Z,57.21
2022-08-17T02:38:50.845Z,56.75
2022-08-17T02:39:49.933Z,57.26
2022-08-17T02:40:49.826Z,57.77
2022-08-17T02:41:49.827Z,58.46
2022-08-17T02:42:49.976Z,57.92
2022-08-17T02:43:49.817Z,56.76
2022-08-17T02:44:49.790Z,58.00
2022-08-17T02:45:49.807Z,54.62
2022-08-17T02:46:49.774Z,55.85
2022-08-17T02:47:49.799Z,57.45
2022-08-17T02:48:49.759Z,57.89
2022-08-17T02:49:54.203Z,59.01
2022-08-17T02:50:50.752Z,56.87
2022-08-17T02:51:49.743Z,56.73
2022-08-17T02:53:02.249Z,57.52
2022-08-17T02:53:50.730Z,57.53
2022-08-17T02:54:49.718Z,56.92
2022-08-17T02:55:49.710Z,58.14
2022-08-17T02:56:49.698Z,57.78
2022-08-17T02:57:49.695Z,57.72
2022-08-17T02:58:49.714Z,58.90
2022-08-17T02:59:49.675Z,59.07
2022-08-17T03:00:49.664Z,58.24
2022-08-17T03:01:49.686Z,58.52
2022-08-17T03:02:49.832Z,58.18
2022-08-17T03:03:49.645Z,58.98
2022-08-17T03:04:49.661Z,59.56
2022-08-17T03:05:49.641Z,57.95
2022-08-17T03:06:49.623Z,58.12
2022-08-17T03:07:49.624Z,58.45
2022-08-17T03:08:49.638Z,57.73
2022-08-17T03:09:49.632Z,58.52
2022-08-17T03:10:49.587Z,57.89
2022-08-17T03:11:49.613Z,57.43
2022-08-17T03:12:49.780Z,58.37
2022-08-17T03:13:49.574Z,59.92
2022-08-17T03:14:49.565Z,56.72
2022-08-17T03:15:49.581Z,58.90
2022-08-17T03:16:49.616Z,56.60
2022-08-17T03:17:49.543Z,57.94
2022-08-17T03:18:49.560Z,56.11
2022-08-17T03:19:49.532Z,56.21
2022-08-17T03:20:49.518Z,58.20
2022-08-17T03:21:54.796Z,58.21
2022-08-17T03:22:53.377Z,58.91
2022-08-17T03:23:49.499Z,58.42
2022-08-17T03:24:50.513Z,59.23
2022-08-17T03:25:49.488Z,58.66
2022-08-17T03:26:49.475Z,58.28
2022-08-17T03:27:49.482Z,58.68
2022-08-17T03:28:49.475Z,59.48
2022-08-17T03:29:49.459Z,58.58
2022-08-17T03:30:49.469Z,59.36
2022-08-17T03:31:49.597Z,58.74
2022-08-17T03:32:49.701Z,60.27
2022-08-17T03:33:49.434Z,60.21
2022-08-17T03:34:49.413Z,58.36
2022-08-17T03:35:49.409Z,60.02
2022-08-17T03:36:49.408Z,58.59
2022-08-17T03:38:00.040Z,60.07
2022-08-17T03:38:50.394Z,57.88
2022-08-17T03:39:49.447Z,57.90
2022-08-17T03:40:56.753Z,60.60
2022-08-17T03:41:50.389Z,59.46
2022-08-17T03:42:49.429Z,59.36
2022-08-17T03:43:49.359Z,60.20
2022-08-17T03:44:49.352Z,58.79
2022-08-17T03:45:49.337Z,61.42
2022-08-17T03:46:49.357Z,61.71
2022-08-17T03:47:49.325Z,60.71
2022-08-17T03:48:49.318Z,62.05
2022-08-17T03:49:49.312Z,60.13
2022-08-17T03:50:49.313Z,61.29
2022-08-17T03:51:49.318Z,61.13
2022-08-17T03:52:51.718Z,61.15
2022-08-17T03:53:49.302Z,61.79
2022-08-17T03:54:49.262Z,59.26
2022-08-17T03:55:49.270Z,59.26
2022-08-17T03:56:49.259Z,59.22
2022-08-17T03:57:49.255Z,59.27
2022-08-17T03:58:49.254Z,59.88
2022-08-17T03:59:49.266Z,58.86
2022-08-17T04:00:49.219Z,59.98
2022-08-17T04:01:49.311Z,59.75
2022-08-17T04:02:49.408Z,58.83
2022-08-17T04:03:49.203Z,59.54
2022-08-17T04:04:49.185Z,59.20
2022-08-17T04:05:49.204Z,60.49
2022-08-17T04:06:49.174Z,59.42
2022-08-17T04:07:49.197Z,59.78
2022-08-17T04:08:49.163Z,60.14
2022-08-17T04:09:49.156Z,59.73
2022-08-17T04:10:49.146Z,60.11
2022-08-17T04:11:49.175Z,60.67
2022-08-17T04:12:49.339Z,59.99
2022-08-17T04:13:49.128Z,60.35
2022-08-17T04:14:52.037Z,59.88
2022-08-17T04:15:49.103Z,61.32
2022-08-17T04:16:49.102Z,59.90
2022-08-17T04:17:49.112Z,60.29
2022-08-17T04:18:49.083Z,59.60
2022-08-17T04:19:49.076Z,60.06
2022-08-17T04:20:49.061Z,57.74
2022-08-17T04:21:49.099Z,59.72
2022-08-17T04:22:49.175Z,59.36
2022-08-17T04:23:49.071Z,59.45
2022-08-17T04:24:49.030Z,61.38
2022-08-17T04:25:49.028Z,59.70
2022-08-17T04:26:53.655Z,58.75
2022-08-17T04:27:50.023Z,60.26
2022-08-17T04:28:49.026Z,60.84
2022-08-17T04:29:54.938Z,60.22
2022-08-17T04:30:49.999Z,59.27
2022-08-17T04:31:48.992Z,59.35
2022-08-17T04:33:04.252Z,59.26
2022-08-17T04:33:49.994Z,60.87
2022-08-17T04:34:48.966Z,59.95
2022-08-17T04:35:48.984Z,60.51
2022-08-17T04:36:50.208Z,61.19
2022-08-17T04:37:48.939Z,60.34
2022-08-17T04:38:48.937Z,61.14
2022-08-17T04:39:49.036Z,60.93
2022-08-17T04:40:48.938Z,60.46
2022-08-17T04:41:48.925Z,59.99
2022-08-17T04:42:49.040Z,60.83
2022-08-17T04:43:49.907Z,62.31
2022-08-17T04:44:48.897Z,60.29
2022-08-17T04:45:55.212Z,60.94
2022-08-17T04:46:48.930Z,61.56
2022-08-17T04:47:48.866Z,60.98
2022-08-17T04:48:48.853Z,62.43
2022-08-17T04:49:48.854Z,61.50
2022-08-17T04:50:48.838Z,60.82
2022-08-17T04:51:56.280Z,60.12
2022-08-17T04:52:48.843Z,63.45
2022-08-17T04:53:55.031Z,61.66
2022-08-17T04:54:49.803Z,59.96
2022-08-17T04:55:48.803Z,61.47
2022-08-17T04:56:48.807Z,61.22
2022-08-17T04:57:48.789Z,59.94
2022-08-17T04:58:49.796Z,59.53
2022-08-17T04:59:48.774Z,60.51
2022-08-17T05:00:48.810Z,61.24
2022-08-17T05:01:48.876Z,61.69
2022-08-17T05:02:50.179Z,60.79
2022-08-17T05:03:48.744Z,58.61
2022-08-17T05:04:48.736Z,58.84
2022-08-17T05:05:48.758Z,61.04
2022-08-17T05:06:48.725Z,60.37
2022-08-17T05:07:48.735Z,59.98
2022-08-17T05:08:48.738Z,59.09
2022-08-17T05:09:48.693Z,58.19
2022-08-17T05:10:48.700Z,58.64
2022-08-17T05:11:48.682Z,58.36
2022-08-17T05:12:48.744Z,59.24
2022-08-17T05:13:48.688Z,59.42
2022-08-17T05:14:48.662Z,60.52
2022-08-17T05:15:48.695Z,58.63
2022-08-17T05:16:48.651Z,58.34
2022-08-17T05:17:48.638Z,60.04
2022-08-17T05:18:48.655Z,59.85
2022-08-17T05:19:51.884Z,60.31
2022-08-17T05:20:48.635Z,60.43
2022-08-17T05:21:48.608Z,59.92
2022-08-17T05:22:48.692Z,60.23
2022-08-17T05:23:50.314Z,60.03
2022-08-17T05:24:55.442Z,59.12
2022-08-17T05:25:49.767Z,59.50
2022-08-17T05:26:48.576Z,58.84
2022-08-17T05:27:48.602Z,59.28
2022-08-17T05:28:48.564Z,57.34
2022-08-17T05:29:48.558Z,58.31
2022-08-17T05:30:48.607Z,57.69
2022-08-17T05:31:48.542Z,58.87
2022-08-17T05:32:48.576Z,59.27
2022-08-17T05:33:48.521Z,59.37
2022-08-17T05:34:48.512Z,59.20
2022-08-17T05:35:48.510Z,57.76
2022-08-17T05:36:48.494Z,57.60
2022-08-17T05:37:48.482Z,57.61
2022-08-17T05:38:48.500Z,57.85
2022-08-17T05:39:48.518Z,57.66
2022-08-17T05:40:48.478Z,59.25
2022-08-17T05:41:48.509Z,58.29
2022-08-17T05:42:48.454Z,57.95
2022-08-17T05:43:50.890Z,58.35
2022-08-17T05:44:48.458Z,58.29
2022-08-17T05:45:55.795Z,57.12
2022-08-17T05:46:49.435Z,58.50
2022-08-17T05:47:48.422Z,58.05
2022-08-17T05:48:48.406Z,57.64
2022-08-17T05:49:49.114Z,56.06
2022-08-17T05:50:48.419Z,56.14
2022-08-17T05:51:48.393Z,56.94
2022-08-17T05:52:48.388Z,56.62
2022-08-17T05:53:48.377Z,57.59
2022-08-17T05:54:48.366Z,56.64
2022-08-17T05:55:48.383Z,56.64
2022-08-17T05:56:48.355Z,57.77
2022-08-17T05:57:53.811Z,57.10
2022-08-17T05:58:49.345Z,57.06
2022-08-17T05:59:48.352Z,56.42
2022-08-17T06:00:48.342Z,56.03
2022-08-17T06:01:48.344Z,57.60
2022-08-17T06:02:48.350Z,57.00
2022-08-17T06:03:48.315Z,56.70
2022-08-17T06:04:48.305Z,56.32
2022-08-17T06:05:48.323Z,56.73
2022-08-17T06:06:48.299Z,57.51
2022-08-17T06:07:48.300Z,57.01
2022-08-17T06:08:48.288Z,56.26
2022-08-17T06:09:48.271Z,57.49
2022-08-17T06:10:48.281Z,56.84
2022-08-17T06:11:53.510Z,57.69
2022-08-17T06:12:48.334Z,55.97
2022-08-17T06:13:48.251Z,55.07
2022-08-17T06:14:48.233Z,56.47
2022-08-17T06:15:48.251Z,56.62
2022-08-17T06:16:48.238Z,56.34
2022-08-17T06:17:48.225Z,55.74
2022-08-17T06:18:48.206Z,56.14
2022-08-17T06:19:48.212Z,56.81
2022-08-17T06:20:48.213Z,56.91
2022-08-17T06:21:48.191Z,57.13
2022-08-17T06:22:48.203Z,57.84
2022-08-17T06:23:48.183Z,57.25
2022-08-17T06:24:48.191Z,56.80
2022-08-17T06:25:48.170Z,55.04
2022-08-17T06:26:48.158Z,56.09
2022-08-17T06:27:48.190Z,57.51
2022-08-17T06:28:49.150Z,56.83
2022-08-17T06:29:48.168Z,56.64
2022-08-17T06:30:59.559Z,56.03
2022-08-17T06:31:49.170Z,54.39
2022-08-17T06:32:48.119Z,56.09
2022-08-17T06:33:48.116Z,55.57
2022-08-17T06:34:48.128Z,55.85
2022-08-17T06:35:48.116Z,55.41
2022-08-17T06:36:48.123Z,55.66
2022-08-17T06:37:48.095Z,55.74
2022-08-17T06:38:48.079Z,54.89
2022-08-17T06:39:48.105Z,55.97
2022-08-17T06:40:48.060Z,55.91
2022-08-17T06:41:48.065Z,55.51
2022-08-17T06:43:04.981Z,56.83
2022-08-17T06:43:49.041Z,56.29
2022-08-17T06:44:51.411Z,56.14
2022-08-17T06:45:48.039Z,55.10
2022-08-17T06:46:48.021Z,54.42
2022-08-17T06:47:48.037Z,56.19
2022-08-17T06:48:48.014Z,55.10
2022-08-17T06:49:53.188Z,55.20
2022-08-17T06:50:48.001Z,55.02
2022-08-17T06:51:48.006Z,55.45
2022-08-17T06:52:48.112Z,55.60
2022-08-17T06:53:48.039Z,54.39
2022-08-17T06:54:47.978Z,53.21
2022-08-17T06:55:47.972Z,52.89
2022-08-17T06:56:52.931Z,55.36
2022-08-17T06:57:48.960Z,52.65
2022-08-17T06:58:47.944Z,54.94
2022-08-17T06:59:55.545Z,56.31
2022-08-17T07:00:47.997Z,55.92
2022-08-17T07:01:47.924Z,56.65
2022-08-17T07:02:51.890Z,56.47
2022-08-17T07:03:48.935Z,56.83
2022-08-17T07:04:47.938Z,55.59
2022-08-17T07:05:47.906Z,54.24
2022-08-17T07:06:47.923Z,54.83
2022-08-17T07:07:47.895Z,55.33
2022-08-17T07:08:47.886Z,54.26
2022-08-17T07:09:47.889Z,56.02
2022-08-17T07:10:47.883Z,56.34
2022-08-17T07:11:47.892Z,56.11
2022-08-17T07:12:47.862Z,56.45
2022-08-17T07:13:51.087Z,56.47
2022-08-17T07:14:47.851Z,55.84
2022-08-17T07:15:47.837Z,56.74
2022-08-17T07:16:47.835Z,56.71
2022-08-17T07:17:48.511Z,56.00
2022-08-17T07:18:47.821Z,56.22
2022-08-17T07:19:47.807Z,56.23
2022-08-17T07:20:47.805Z,55.90
2022-08-17T07:21:47.831Z,55.45
2022-08-17T07:22:55.251Z,56.02
2022-08-17T07:23:47.788Z,56.40
2022-08-17T07:24:47.783Z,56.24
2022-08-17T07:25:47.777Z,55.99
2022-08-17T07:26:47.784Z,56.02
2022-08-17T07:27:47.766Z,55.78
2022-08-17T07:28:47.750Z,55.44
2022-08-17T07:29:47.748Z,55.51
2022-08-17T07:30:47.781Z,56.27
2022-08-17T07:31:47.737Z,54.90
2022-08-17T07:32:47.745Z,55.38
2022-08-17T07:33:47.724Z,55.30
2022-08-17T07:34:47.713Z,54.87
2022-08-17T07:35:47.712Z,55.41
2022-08-17T07:36:47.705Z,56.64
2022-08-17T07:37:47.698Z,55.98
2022-08-17T07:38:47.695Z,54.85
2022-08-17T07:39:59.729Z,54.58
2022-08-17T07:40:48.746Z,55.88
2022-08-17T07:41:53.122Z,56.85
2022-08-17T07:42:48.683Z,56.25
2022-08-17T07:43:47.664Z,55.66
2022-08-17T07:44:47.652Z,54.25
2022-08-17T07:45:47.656Z,54.86
2022-08-17T07:46:47.635Z,55.70
2022-08-17T07:47:47.629Z,55.26
2022-08-17T07:48:47.638Z,54.51
2022-08-17T07:49:47.611Z,55.56
2022-08-17T07:50:49.740Z,56.45
2022-08-17T07:51:47.603Z,55.77
2022-08-17T07:52:52.214Z,55.68
2022-08-17T07:53:47.586Z,56.01
2022-08-17T07:54:47.599Z,56.81
2022-08-17T07:55:47.577Z,55.16
2022-08-17T07:56:47.587Z,55.43
2022-08-17T07:57:47.621Z,55.50
2022-08-17T07:58:47.554Z,55.78
2022-08-17T07:59:47.564Z,55.06
2022-08-17T08:00:47.562Z,54.71
2022-08-17T08:01:47.624Z,56.08
2022-08-17T08:02:48.537Z,55.48
2022-08-17T08:03:50.469Z,54.00
2022-08-17T08:05:03.835Z,55.72
2022-08-17T08:05:49.447Z,55.67
2022-08-17T08:06:47.497Z,55.62
2022-08-17T08:07:47.512Z,55.58
2022-08-17T08:08:47.481Z,54.57
2022-08-17T08:09:47.532Z,54.46
2022-08-17T08:10:47.465Z,54.44
2022-08-17T08:11:47.463Z,56.08
2022-08-17T08:12:47.465Z,55.49
2022-08-17T08:13:47.463Z,55.90
2022-08-17T08:14:47.444Z,56.19
2022-08-17T08:15:50.435Z,57.00
2022-08-17T08:16:48.444Z,56.06
2022-08-17T08:17:47.444Z,55.90
2022-08-17T08:18:55.302Z,55.32
2022-08-17T08:19:47.415Z,55.52
2022-08-17T08:20:53.225Z,56.49
2022-08-17T08:21:48.403Z,56.61
2022-08-17T08:22:47.408Z,55.89
2022-08-17T08:23:47.386Z,55.10
2022-08-17T08:24:47.415Z,55.92
2022-08-17T08:25:50.902Z,56.03
2022-08-17T08:26:47.368Z,55.42
2022-08-17T08:27:47.445Z,53.87
2022-08-17T08:28:47.354Z,56.04
2022-08-17T08:29:47.375Z,55.79
2022-08-17T08:30:47.369Z,55.66
2022-08-17T08:31:47.344Z,56.25
2022-08-17T08:32:47.326Z,55.69
2022-08-17T08:33:47.353Z,55.34
2022-08-17T08:35:01.987Z,54.78
2022-08-17T08:35:48.308Z,54.44
2022-08-17T08:37:12.771Z,52.75
2022-08-17T08:37:48.300Z,53.29
2022-08-17T08:38:47.288Z,54.89
2022-08-17T08:39:47.313Z,55.35
2022-08-17T08:40:47.274Z,54.63
2022-08-17T08:41:47.260Z,54.83
2022-08-17T08:42:47.290Z,55.35
2022-08-17T08:43:52.234Z,55.22
2022-08-17T08:45:00.998Z,54.63
2022-08-17T08:45:48.241Z,56.06
2022-08-17T08:46:47.330Z,55.41
2022-08-17T08:47:47.335Z,55.59
2022-08-17T08:48:56.982Z,55.15
2022-08-17T08:50:04.999Z,54.57
2022-08-17T08:50:48.228Z,53.11
2022-08-17T08:51:47.220Z,52.70
2022-08-17T08:52:47.193Z,54.98
2022-08-17T08:53:47.183Z,54.43
2022-08-17T08:54:47.166Z,54.30
2022-08-17T08:55:47.167Z,55.01
2022-08-17T08:57:11.946Z,54.46
2022-08-17T08:57:48.156Z,55.94
2022-08-17T08:58:47.140Z,56.20
2022-08-17T08:59:51.192Z,56.13
2022-08-17T09:00:48.132Z,53.74
2022-08-17T09:01:47.313Z,55.25
2022-08-17T09:02:47.136Z,55.68
2022-08-17T09:03:52.816Z,54.38
2022-08-17T09:05:12.729Z,54.49
2022-08-17T09:05:48.426Z,54.60
2022-08-17T09:06:47.100Z,54.09
2022-08-17T09:07:47.158Z,55.83
2022-08-17T09:08:47.080Z,54.92
2022-08-17T09:09:47.076Z,55.86
2022-08-17T09:10:47.088Z,56.41
2022-08-17T09:12:01.046Z,54.90
2022-08-17T09:12:48.048Z,55.42
2022-08-17T09:13:47.049Z,55.34
2022-08-17T09:14:48.037Z,55.41
2022-08-17T09:15:47.031Z,55.69
2022-08-17T09:16:47.039Z,56.54
2022-08-17T09:17:47.148Z,56.11
2022-08-17T09:19:02.330Z,56.01
2022-08-17T09:19:48.005Z,55.30
2022-08-17T09:20:50.224Z,55.64
2022-08-17T09:21:48.634Z,54.86
2022-08-17T09:22:47.007Z,54.08
2022-08-17T09:23:46.989Z,55.23
2022-08-17T09:24:46.972Z,54.19
2022-08-17T09:25:46.960Z,55.95
2022-08-17T09:26:46.961Z,54.93
2022-08-17T09:27:46.981Z,54.07
2022-08-17T09:28:46.973Z,55.52
2022-08-17T09:29:46.938Z,55.77
2022-08-17T09:30:46.936Z,55.72
2022-08-17T09:31:49.435Z,55.49
2022-08-17T09:32:46.936Z,54.74
2022-08-17T09:33:46.913Z,55.79
2022-08-17T09:34:47.030Z,54.73
2022-08-17T09:35:46.927Z,54.18
2022-08-17T09:36:46.897Z,54.66
2022-08-17T09:37:46.928Z,54.61
2022-08-17T09:38:46.872Z,54.62
2022-08-17T09:39:46.960Z,55.24
2022-08-17T09:40:46.886Z,55.28
2022-08-17T09:41:48.558Z,54.70
2022-08-17T09:42:46.860Z,54.14
2022-08-17T09:43:46.850Z,54.33
2022-08-17T09:44:46.859Z,54.82
2022-08-17T09:45:46.863Z,55.18
2022-08-17T09:46:46.825Z,54.05
2022-08-17T09:47:46.909Z,54.40
2022-08-17T09:48:46.889Z,54.28
2022-08-17T09:49:46.803Z,53.68
2022-08-17T09:51:01.597Z,54.40
2022-08-17T09:51:47.802Z,54.41
2022-08-17T09:52:46.808Z,54.44
2022-08-17T09:53:46.778Z,53.81
2022-08-17T09:54:46.770Z,54.90
2022-08-17T09:55:46.792Z,53.86
2022-08-17T09:56:56.423Z,54.55
2022-08-17T09:57:47.774Z,54.93
2022-08-17T09:58:46.750Z,56.27
2022-08-17T09:59:46.733Z,53.59
2022-08-17T10:00:46.771Z,53.79
2022-08-17T10:01:46.736Z,55.37
2022-08-17T10:02:46.727Z,54.22
2022-08-17T10:03:46.734Z,55.01
2022-08-17T10:04:46.695Z,53.71
2022-08-17T10:05:46.754Z,54.12
2022-08-17T10:06:46.693Z,53.51
2022-08-17T10:07:46.769Z,53.86
2022-08-17T10:08:46.675Z,54.08
2022-08-17T10:09:46.688Z,53.30
2022-08-17T10:10:56.160Z,53.77
2022-08-17T10:11:48.297Z,53.50
2022-08-17T10:12:47.209Z,54.96
2022-08-17T10:13:53.072Z,54.41
2022-08-17T10:14:46.636Z,54.43
2022-08-17T10:15:47.652Z,55.94
2022-08-17T10:16:46.621Z,55.38
2022-08-17T10:17:46.698Z,54.48
2022-08-17T10:18:46.624Z,54.31
2022-08-17T10:19:46.598Z,54.93
2022-08-17T10:20:46.608Z,54.57
2022-08-17T10:21:46.597Z,53.64
2022-08-17T10:22:51.176Z,54.66
2022-08-17T10:23:46.573Z,54.09
2022-08-17T10:25:21.682Z,54.59
2022-08-17T10:25:55.683Z,54.10
2022-08-17T10:26:56.585Z,54.28
2022-08-17T10:27:47.545Z,54.12
2022-08-17T10:28:46.541Z,55.02
2022-08-17T10:29:48.572Z,54.70
2022-08-17T10:30:46.528Z,56.85
2022-08-17T10:31:46.519Z,53.89
2022-08-17T10:32:46.540Z,55.74
2022-08-17T10:33:46.508Z,53.63
2022-08-17T10:34:46.497Z,54.84
2022-08-17T10:35:46.495Z,55.07
2022-08-17T10:36:46.495Z,55.43
2022-08-17T10:37:46.584Z,54.48
2022-08-17T10:38:46.486Z,54.87
2022-08-17T10:39:50.530Z,54.83
2022-08-17T10:40:47.566Z,55.15
2022-08-17T10:41:46.442Z,55.70
2022-08-17T10:42:46.456Z,56.14
2022-08-17T10:44:37.414Z,55.80
2022-08-17T10:44:47.418Z,56.06
2022-08-17T10:45:47.033Z,55.34
2022-08-17T10:46:46.420Z,55.60
2022-08-17T10:47:55.237Z,55.18
2022-08-17T10:48:46.399Z,54.54
2022-08-17T10:49:46.396Z,54.59
2022-08-17T10:50:46.400Z,54.85
2022-08-17T10:51:46.387Z,55.68
2022-08-17T10:52:46.372Z,55.78
2022-08-17T10:53:46.376Z,54.27
2022-08-17T10:54:46.357Z,54.25
2022-08-17T10:55:46.353Z,55.58
2022-08-17T10:56:46.392Z,55.04
2022-08-17T10:57:46.370Z,55.84
2022-08-17T10:58:46.329Z,55.46
2022-08-17T10:59:46.349Z,55.53
2022-08-17T11:00:46.371Z,54.57
2022-08-17T11:01:46.313Z,55.18
2022-08-17T11:02:46.355Z,55.87
2022-08-17T11:03:46.298Z,55.26
2022-08-17T11:04:46.306Z,55.22
2022-08-17T11:05:46.308Z,55.02
2022-08-17T11:06:46.328Z,55.36
2022-08-17T11:07:46.271Z,56.16
2022-08-17T11:08:46.289Z,56.32
2022-08-17T11:09:46.261Z,55.42
2022-08-17T11:10:51.361Z,55.07
2022-08-17T11:11:47.240Z,55.54
2022-08-17T11:12:46.277Z,55.81
2022-08-17T11:13:46.231Z,55.96
2022-08-17T11:14:46.218Z,56.04
2022-08-17T11:15:46.239Z,55.54
2022-08-17T11:16:46.199Z,55.80
2022-08-17T11:17:46.192Z,55.29
2022-08-17T11:18:46.181Z,56.36
2022-08-17T11:19:46.182Z,55.20
2022-08-17T11:20:46.171Z,55.26
2022-08-17T11:21:46.212Z,56.07
2022-08-17T11:22:46.223Z,56.69
2022-08-17T11:23:46.159Z,55.99
2022-08-17T11:24:46.149Z,56.12
2022-08-17T11:25:46.154Z,56.45
2022-08-17T11:26:46.135Z,56.70
2022-08-17T11:27:46.142Z,56.10
2022-08-17T11:28:46.117Z,56.23
2022-08-17T11:29:50.596Z,56.28
2022-08-17T11:30:47.107Z,56.05
2022-08-17T11:31:46.111Z,55.74
2022-08-17T11:32:47.678Z,56.68
2022-08-17T11:33:46.078Z,55.57
2022-08-17T11:34:46.069Z,56.30
2022-08-17T11:35:46.063Z,56.56
2022-08-17T11:36:46.056Z,56.11
2022-08-17T11:37:46.076Z,55.82
2022-08-17T11:38:46.041Z,57.06
2022-08-17T11:39:46.106Z,56.40
2022-08-17T11:40:46.024Z,55.55
2022-08-17T11:41:46.017Z,55.65
2022-08-17T11:42:46.024Z,55.84
2022-08-17T11:43:46.007Z,55.99
2022-08-17T11:44:46.006Z,56.36
2022-08-17T11:45:46.012Z,56.33
2022-08-17T11:46:45.992Z,55.87
2022-08-17T11:48:02.244Z,56.13
2022-08-17T11:48:46.977Z,55.90
2022-08-17T11:49:45.959Z,55.62
2022-08-17T11:50:46.000Z,55.07
2022-08-17T11:51:45.947Z,55.39
2022-08-17T11:52:46.787Z,54.61
2022-08-17T11:53:45.947Z,54.55
2022-08-17T11:54:45.925Z,54.71
2022-08-17T11:55:45.923Z,54.98
2022-08-17T11:56:45.936Z,55.43
2022-08-17T11:57:45.911Z,55.89
2022-08-17T11:58:45.902Z,54.20
2022-08-17T11:59:45.888Z,54.09
2022-08-17T12:00:45.880Z,53.90
2022-08-17T12:01:45.882Z,54.93
2022-08-17T12:02:48.375Z,54.63
2022-08-17T12:03:55.472Z,54.58
2022-08-17T12:04:46.929Z,54.20
2022-08-17T12:05:45.875Z,54.90
2022-08-17T12:06:45.879Z,54.90
2022-08-17T12:07:45.889Z,54.96
2022-08-17T12:08:45.836Z,55.70
2022-08-17T12:09:45.823Z,55.28
2022-08-17T12:10:45.813Z,55.72
2022-08-17T12:11:55.508Z,55.00
2022-08-17T12:12:46.815Z,55.27
2022-08-17T12:13:45.797Z,55.11
2022-08-17T12:15:08.971Z,54.67
2022-08-17T12:15:45.779Z,55.63
2022-08-17T12:16:45.766Z,55.09
2022-08-17T12:17:45.769Z,55.45
2022-08-17T12:18:45.772Z,55.54
2022-08-17T12:19:45.755Z,55.86
2022-08-17T12:20:45.750Z,56.15
2022-08-17T12:21:45.746Z,55.12
2022-08-17T12:22:45.729Z,55.75
2022-08-17T12:23:45.725Z,55.28
2022-08-17T12:24:45.734Z,54.96
2022-08-17T12:25:45.705Z,55.06
2022-08-17T12:26:45.696Z,55.60
2022-08-17T12:28:05.120Z,55.99
2022-08-17T12:28:46.710Z,55.85
2022-08-17T12:29:45.679Z,55.30
2022-08-17T12:30:45.674Z,56.23
2022-08-17T12:31:45.661Z,56.27
2022-08-17T12:32:45.647Z,55.49
2022-08-17T12:33:45.650Z,56.81
2022-08-17T12:34:45.666Z,55.92
2022-08-17T12:35:45.638Z,55.16
2022-08-17T12:36:45.642Z,55.96
2022-08-17T12:37:45.619Z,56.12
2022-08-17T12:38:45.619Z,56.82
2022-08-17T12:39:45.665Z,56.29
2022-08-17T12:40:45.590Z,57.25
2022-08-17T12:41:45.626Z,56.29
2022-08-17T12:42:45.637Z,56.89
2022-08-17T12:43:45.575Z,56.55
2022-08-17T12:44:50.532Z,56.38
2022-08-17T12:45:46.580Z,56.93
2022-08-17T12:46:45.546Z,57.22
2022-08-17T12:47:45.546Z,57.52
2022-08-17T12:48:55.071Z,57.40
2022-08-17T12:49:46.530Z,56.92
2022-08-17T12:50:45.521Z,57.41
2022-08-17T12:51:45.524Z,57.33
2022-08-17T12:52:45.545Z,56.29